Terminal Aerodrome Forecast
Issued by NWS

Home | Current Version | Previous Version | Text Only | Print | Product List | Glossary On
Versions: 1 2 3 4 5 6 7 8 9 10 11 12 13 14 15
000
FTUS41 KLWX 021140
TAFMTN
TAF
KMTN 021140Z 0212/0312 00000KT 1 1/2SM -SHRA BR OVC004
     FM021400 13005KT 2SM BR OVC003
     FM021800 18007KT P6SM OVC008
     FM030000 18004KT P6SM -SHRA VCTS OVC050CB
     FM030200 09005KT P6SM -SHRA OVC015
     FM030400 06005KT 6SM SHRA BR OVC003=

USA.gov is the U.S. government's official web portal to all federal, state and local government web resources and services.